Time;durP1;ratioP1;P1;durP2;ratioP2;P2;SDS_P1;SDS_P2;PMS_P1;PMS_P2;Temp;Humidity;BMP_temperature;BMP_pressure;BME280_temperature;BME280_humidity;BME280_pressure;Samples;Min_cycle;Max_cycle;Signal;HPM_P1;HPM_P2
2024/04/15 00:00:07;;;;;;;0.40;0.37;;;19.30;89.70;;;;;;5511606;26;20233;-75
2024/04/15 00:02:33;;;;;;;0.30;0.20;;;19.20;89.70;;;;;;5512543;25;20835;-74
2024/04/15 00:05:01;;;;;;;0.50;0.47;;;19.20;89.80;;;;;;5511682;25;20506;-75
2024/04/15 00:07:27;;;;;;;0.30;0.20;;;19.20;89.90;;;;;;5512741;25;20871;-74
2024/04/15 00:09:53;;;;;;;0.30;0.20;;;19.10;90.00;;;;;;5513382;25;20440;-74
2024/04/15 00:12:19;;;;;;;0.70;0.63;;;19.10;90.30;;;;;;5512445;25;20238;-74
2024/04/15 00:14:45;;;;;;;0.50;0.50;;;19.10;90.00;;;;;;5511114;26;20796;-74
2024/04/15 00:17:11;;;;;;;0.40;0.40;;;19.10;90.00;;;;;;5512680;26;20889;-74
2024/04/15 00:19:38;;;;;;;0.53;0.53;;;19.10;90.10;;;;;;5513243;25;20460;-74
2024/04/15 00:22:03;;;;;;;2.30;2.20;;;19.00;90.00;;;;;;5512558;26;20448;-74
2024/04/15 00:24:29;;;;;;;1.23;1.23;;;19.00;90.00;;;;;;5512912;25;20482;-74
2024/04/15 00:26:55;;;;;;;0.30;0.20;;;19.10;90.10;;;;;;5512200;26;20342;-75
2024/04/15 00:29:20;;;;;;;0.50;0.50;;;19.10;90.30;;;;;;5511416;26;20696;-74
2024/04/15 00:31:47;;;;;;;0.40;0.30;;;19.10;90.30;;;;;;5512414;25;20236;-74
2024/04/15 00:34:16;;;;;;;0.30;0.30;;;19.10;90.30;;;;;;5511258;26;20262;-74
2024/04/15 00:36:44;;;;;;;0.50;0.50;;;19.10;90.10;;;;;;5510438;26;20440;-74
2024/04/15 00:39:11;;;;;;;0.50;0.50;;;19.10;90.10;;;;;;5513267;26;20567;-75
2024/04/15 00:41:36;;;;;;;0.30;0.20;;;19.10;90.30;;;;;;5516117;25;21192;-74
2024/04/15 00:44:02;;;;;;;0.43;0.43;;;19.10;90.30;;;;;;5514920;26;20546;-75
2024/04/15 00:46:28;;;;;;;0.40;0.33;;;19.10;90.30;;;;;;5515670;25;20232;-75
2024/04/15 00:48:55;;;;;;;0.67;0.57;;;19.20;90.20;;;;;;5514564;26;20275;-74
2024/04/15 00:51:23;;;;;;;0.80;0.80;;;19.20;90.20;;;;;;5514632;26;20844;-74
2024/04/15 00:53:52;;;;;;;0.30;0.30;;;19.10;90.30;;;;;;5507836;26;20479;-75
2024/04/15 00:56:21;;;;;;;0.30;0.20;;;19.20;90.50;;;;;;5479108;26;20836;-75
2024/04/15 00:58:47;;;;;;;0.30;0.20;;;19.20;90.50;;;;;;5514802;26;20459;-75
2024/04/15 01:01:14;;;;;;;1.27;0.60;;;19.20;90.30;;;;;;5516208;25;20596;-75
2024/04/15 01:03:39;;;;;;;0.30;0.30;;;19.20;90.30;;;;;;5515424;25;20506;-74
2024/04/15 01:06:05;;;;;;;1.13;1.03;;;19.20;90.20;;;;;;5516456;26;20435;-75
2024/04/15 01:08:31;;;;;;;0.87;0.87;;;19.20;90.20;;;;;;5513498;26;20301;-74
2024/04/15 01:10:58;;;;;;;0.40;0.40;;;19.20;90.20;;;;;;5514113;26;21035;-75
2024/04/15 01:13:24;;;;;;;0.67;0.67;;;19.20;90.20;;;;;;5515229;26;20458;-75
2024/04/15 01:15:56;;;;;;;0.70;0.70;;;19.20;90.20;;;;;;5515527;25;20534;-74
2024/04/15 01:18:22;;;;;;;0.70;0.70;;;19.10;90.20;;;;;;5515679;25;20463;-75
2024/04/15 01:20:48;;;;;;;0.67;0.67;;;19.10;90.30;;;;;;5513909;26;21058;-74
2024/04/15 01:23:21;;;;;;;0.60;0.60;;;19.00;90.30;;;;;;5515495;25;20239;-74
2024/04/15 01:25:47;;;;;;;0.30;0.20;;;19.00;90.60;;;;;;5515304;25;20229;-74
2024/04/15 01:28:13;;;;;;;0.40;0.40;;;18.90;90.80;;;;;;5515284;25;20461;-74
2024/04/15 01:30:39;;;;;;;0.30;0.20;;;18.90;90.70;;;;;;5513713;26;20866;-75
2024/04/15 01:33:05;;;;;;;0.50;0.50;;;18.90;90.70;;;;;;5515472;26;20701;-75
2024/04/15 01:35:31;;;;;;;0.30;0.30;;;18.80;90.60;;;;;;5513779;26;20256;-75
2024/04/15 01:37:57;;;;;;;0.30;0.20;;;18.80;90.60;;;;;;5515203;26;20971;-74
2024/04/15 01:40:22;;;;;;;0.40;0.40;;;18.80;90.70;;;;;;5515793;25;20289;-73
2024/04/15 01:42:48;;;;;;;0.83;0.83;;;18.70;90.70;;;;;;5514812;25;20240;-74
2024/04/15 01:45:14;;;;;;;2.23;1.17;;;18.70;90.80;;;;;;5514175;26;20260;-74
2024/04/15 01:47:40;;;;;;;0.30;0.30;;;18.60;90.90;;;;;;5515064;26;20237;-74
2024/04/15 01:50:06;;;;;;;0.40;0.40;;;18.50;91.00;;;;;;5515633;25;20261;-74
2024/04/15 01:52:32;;;;;;;1.07;0.60;;;18.40;91.00;;;;;;5506931;26;21042;-74
2024/04/15 01:54:57;;;;;;;0.47;0.43;;;18.40;91.10;;;;;;5478681;26;20732;-75
2024/04/15 01:57:23;;;;;;;0.30;0.30;;;18.40;91.20;;;;;;5490832;26;20288;-75
2024/04/15 01:59:48;;;;;;;0.30;0.20;;;18.30;91.30;;;;;;5515100;25;20599;-75
2024/04/15 02:02:14;;;;;;;1.03;1.03;;;18.30;91.40;;;;;;5506770;26;20233;-74
2024/04/15 02:04:39;;;;;;;1.10;1.03;;;18.20;91.40;;;;;;5476916;26;20230;-74
2024/04/15 02:07:05;;;;;;;1.90;1.80;;;18.20;91.50;;;;;;5487661;26;20225;-75
2024/04/15 02:09:31;;;;;;;2.13;2.03;;;18.10;91.60;;;;;;5515319;25;20761;-74
2024/04/15 02:11:56;;;;;;;0.40;0.37;;;18.10;91.60;;;;;;5513816;25;20779;-74
2024/04/15 02:14:22;;;;;;;0.70;0.67;;;18.10;91.70;;;;;;5514815;25;20674;-74
2024/04/15 02:16:48;;;;;;;1.80;1.70;;;18.10;92.10;;;;;;5514233;26;20224;-74
2024/04/15 02:19:13;;;;;;;2.43;2.33;;;18.00;92.00;;;;;;5513625;26;20328;-74
2024/04/15 02:21:39;;;;;;;0.97;0.83;;;18.00;92.00;;;;;;5514875;25;20215;-75
2024/04/15 02:24:05;;;;;;;2.67;2.17;;;18.00;92.00;;;;;;5515147;25;20239;-74
2024/04/15 02:26:31;;;;;;;0.60;0.40;;;18.00;92.10;;;;;;5513317;26;20589;-74
2024/04/15 02:28:56;;;;;;;0.50;0.50;;;18.00;92.20;;;;;;5513399;26;20452;-74
2024/04/15 02:31:22;;;;;;;0.40;0.40;;;18.00;92.20;;;;;;5515164;25;20315;-75
2024/04/15 02:33:50;;;;;;;5.07;1.83;;;18.00;92.20;;;;;;5512772;26;20252;-74
2024/04/15 02:36:16;;;;;;;2.90;2.70;;;18.00;92.30;;;;;;5513503;26;20228;-75
2024/04/15 02:38:41;;;;;;;0.30;0.20;;;18.00;92.40;;;;;;5512604;26;20516;-74
2024/04/15 02:41:07;;;;;;;0.40;0.40;;;18.00;92.40;;;;;;5514972;25;20208;-74
2024/04/15 02:43:33;;;;;;;16.27;2.53;;;17.90;92.70;;;;;;5514309;25;20313;-74
2024/04/15 02:45:58;;;;;;;0.30;0.30;;;17.90;92.40;;;;;;5514678;26;20635;-75
2024/04/15 02:48:25;;;;;;;2.30;2.10;;;17.80;92.30;;;;;;5512476;26;20456;-75
2024/04/15 02:50:50;;;;;;;0.57;0.57;;;17.80;92.30;;;;;;5514946;25;20797;-75
2024/04/15 02:53:16;;;;;;;1.73;1.63;;;17.80;92.30;;;;;;5512032;26;20457;-74
2024/04/15 02:55:42;;;;;;;0.87;0.87;;;17.70;92.40;;;;;;5514715;25;20259;-74
2024/04/15 02:58:08;;;;;;;0.30;0.30;;;17.70;92.40;;;;;;5512578;26;20607;-75
2024/04/15 03:00:33;;;;;;;0.40;0.40;;;17.70;92.50;;;;;;5514090;25;20501;-75
2024/04/15 03:02:59;;;;;;;0.93;0.93;;;17.60;92.50;;;;;;5514015;25;20632;-74
2024/04/15 03:05:24;;;;;;;1.03;1.03;;;17.60;92.50;;;;;;5513188;26;20216;-74
2024/04/15 03:07:50;;;;;;;1.33;0.90;;;17.60;92.70;;;;;;5512284;26;20244;-74
2024/04/15 03:10:16;;;;;;;0.30;0.20;;;17.50;92.70;;;;;;5514625;25;20557;-74
2024/04/15 03:12:42;;;;;;;0.40;0.40;;;17.50;92.70;;;;;;5513762;25;20227;-74
2024/04/15 03:15:07;;;;;;;1.03;1.00;;;17.60;92.70;;;;;;5514437;25;21080;-74
2024/04/15 03:17:33;;;;;;;0.40;0.20;;;17.60;92.60;;;;;;5511870;26;20527;-75
2024/04/15 03:19:59;;;;;;;1.70;0.93;;;17.60;92.50;;;;;;5514240;26;20572;-74
2024/04/15 03:22:24;;;;;;;0.37;0.30;;;17.60;92.60;;;;;;5513512;25;20682;-74
2024/04/15 03:24:50;;;;;;;1.03;1.03;;;17.60;92.60;;;;;;5514223;25;20223;-74
2024/04/15 03:27:17;;;;;;;1.33;0.90;;;17.60;92.70;;;;;;5513451;25;20266;-74
2024/04/15 03:29:42;;;;;;;0.40;0.40;;;17.60;92.80;;;;;;5513747;25;20721;-74
2024/04/15 03:32:08;;;;;;;0.97;0.77;;;17.60;92.80;;;;;;5513229;25;20538;-74
2024/04/15 03:34:34;;;;;;;0.30;0.20;;;17.50;92.70;;;;;;5511992;26;20669;-74
2024/04/15 03:37:00;;;;;;;0.83;0.83;;;17.50;93.10;;;;;;5511100;26;20235;-76
2024/04/15 03:39:26;;;;;;;1.17;1.17;;;17.50;92.80;;;;;;5512362;25;20239;-74
2024/04/15 03:41:52;;;;;;;0.70;0.70;;;17.40;92.90;;;;;;5510050;26;20460;-76
2024/04/15 03:44:17;;;;;;;0.30;0.20;;;17.40;92.90;;;;;;5513192;25;20728;-75
2024/04/15 03:46:43;;;;;;;0.30;0.20;;;17.40;92.90;;;;;;5512722;25;20666;-76
2024/04/15 03:49:09;;;;;;;0.30;0.20;;;17.40;92.90;;;;;;5511698;26;20693;-76
2024/04/15 03:51:34;;;;;;;2.30;2.20;;;17.40;92.90;;;;;;5513092;26;20280;-75
2024/04/15 03:54:00;;;;;;;0.30;0.30;;;17.40;92.90;;;;;;5510422;26;20240;-76
2024/04/15 03:56:26;;;;;;;0.30;0.20;;;17.40;92.90;;;;;;5513248;26;20219;-75
2024/04/15 03:58:51;;;;;;;3.50;2.20;;;17.30;93.00;;;;;;5512160;25;20274;-75
2024/04/15 04:01:17;;;;;;;1.23;1.13;;;17.30;93.00;;;;;;5510783;25;20608;-75
2024/04/15 04:03:43;;;;;;;2.67;1.70;;;17.30;93.10;;;;;;5504471;26;20344;-76
2024/04/15 04:06:08;;;;;;;1.03;1.03;;;17.30;93.10;;;;;;5474425;26;20975;-75
2024/04/15 04:08:34;;;;;;;8.73;2.73;;;17.30;93.20;;;;;;5507075;26;20598;-75
2024/04/15 04:11:07;;;;;;;0.40;0.40;;;17.30;93.30;;;;;;5503227;25;20224;-75
2024/04/15 04:13:34;;;;;;;0.30;0.20;;;17.20;93.40;;;;;;5499380;26;20640;-74
2024/04/15 04:16:00;;;;;;;0.40;0.40;;;17.10;93.40;;;;;;5495238;25;20550;-75
2024/04/15 04:18:26;;;;;;;1.83;1.73;;;17.10;93.50;;;;;;5489576;26;20469;-73
2024/04/15 04:20:52;;;;;;;1.23;0.93;;;17.00;93.50;;;;;;5499625;26;20469;-73
2024/04/15 04:23:17;;;;;;;0.70;0.40;;;17.00;93.60;;;;;;5508477;26;20286;-74
2024/04/15 04:25:43;;;;;;;0.57;0.57;;;17.00;93.70;;;;;;5497415;25;20489;-73
2024/04/15 04:28:09;;;;;;;0.50;0.50;;;17.00;93.80;;;;;;5501857;26;20240;-75
2024/04/15 04:30:34;;;;;;;2.87;2.77;;;17.00;93.80;;;;;;5493876;25;20236;-75
2024/04/15 04:33:02;;;;;;;0.30;0.20;;;17.00;93.80;;;;;;5490243;26;20229;-75
2024/04/15 04:35:29;;;;;;;0.30;0.20;;;17.10;93.80;;;;;;5512778;26;20235;-74
2024/04/15 04:37:55;;;;;;;0.93;0.93;;;17.10;93.80;;;;;;5507762;25;20468;-74
2024/04/15 04:40:21;;;;;;;0.40;0.30;;;17.10;93.80;;;;;;5508730;26;20460;-74
2024/04/15 04:42:47;;;;;;;0.30;0.20;;;17.20;93.80;;;;;;5496296;25;20240;-74
2024/04/15 04:45:13;;;;;;;0.63;0.63;;;17.20;93.80;;;;;;5476163;26;20301;-74
2024/04/15 04:47:39;;;;;;;0.30;0.20;;;17.30;93.80;;;;;;5501524;26;20956;-75
2024/04/15 04:50:04;;;;;;;0.30;0.20;;;17.30;93.70;;;;;;5474897;26;20300;-74
2024/04/15 04:52:30;;;;;;;0.67;0.57;;;17.40;93.60;;;;;;5499930;26;20231;-74
2024/04/15 04:54:56;;;;;;;0.30;0.20;;;17.40;93.60;;;;;;5508901;25;20500;-74
2024/04/15 04:57:22;;;;;;;0.30;0.30;;;17.50;93.70;;;;;;5488875;26;20844;-74
2024/04/15 04:59:52;;;;;;;1.17;0.90;;;17.50;93.70;;;;;;5481879;26;20229;-74
2024/04/15 05:02:18;;;;;;;1.97;1.87;;;17.60;93.70;;;;;;5468327;26;20524;-74
2024/04/15 05:04:44;;;;;;;0.40;0.30;;;17.70;93.60;;;;;;5490195;26;20510;-74
2024/04/15 05:07:09;;;;;;;0.30;0.20;;;17.70;93.60;;;;;;5488901;26;20391;-74
2024/04/15 05:09:35;;;;;;;0.30;0.20;;;17.80;93.70;;;;;;5485201;26;20283;-75
2024/04/15 05:12:01;;;;;;;0.30;0.20;;;17.80;93.70;;;;;;5473141;26;20228;-74
2024/04/15 05:14:26;;;;;;;0.40;0.40;;;17.90;93.60;;;;;;5502506;26;20236;-75
2024/04/15 05:16:52;;;;;;;0.37;0.30;;;18.00;94.00;;;;;;5477725;26;20835;-75
2024/04/15 05:19:18;;;;;;;2.93;2.63;;;18.10;93.70;;;;;;5510229;26;20844;-75
2024/04/15 05:21:43;;;;;;;0.43;0.43;;;18.20;93.80;;;;;;5508416;26;20241;-76
2024/04/15 05:24:09;;;;;;;0.37;0.30;;;18.30;93.60;;;;;;5496120;25;20833;-77
2024/04/15 05:26:35;;;;;;;0.30;0.20;;;18.30;93.50;;;;;;5483172;26;20586;-77
2024/04/15 05:29:00;;;;;;;0.30;0.20;;;18.40;93.60;;;;;;5483171;26;20261;-76
2024/04/15 05:31:26;;;;;;;0.30;0.30;;;18.50;93.50;;;;;;5480851;26;20334;-74
2024/04/15 05:33:52;;;;;;;1.13;1.13;;;18.50;93.50;;;;;;5486178;26;20237;-74
2024/04/15 05:36:18;;;;;;;0.30;0.20;;;18.60;93.40;;;;;;5488998;26;20227;-76
2024/04/15 05:38:43;;;;;;;0.30;0.30;;;18.70;93.60;;;;;;5486510;26;22049;-76
2024/04/15 05:41:09;;;;;;;0.30;0.20;;;18.70;93.60;;;;;;5484752;26;20610;-76
2024/04/15 05:43:35;;;;;;;3.10;0.60;;;18.80;93.50;;;;;;5494116;26;20338;-74
2024/04/15 05:46:01;;;;;;;1.07;1.07;;;18.80;93.50;;;;;;5500615;26;20234;-76
2024/04/15 05:48:27;;;;;;;0.50;0.40;;;18.90;93.60;;;;;;5497724;26;20539;-74
2024/04/15 05:50:53;;;;;;;0.60;0.60;;;19.00;93.60;;;;;;5491908;26;20464;-74
2024/04/15 05:53:18;;;;;;;0.40;0.20;;;19.10;93.70;;;;;;5478732;26;20735;-75
2024/04/15 05:55:44;;;;;;;0.30;0.20;;;19.20;93.80;;;;;;5484300;26;20489;-75
2024/04/15 05:58:10;;;;;;;0.30;0.30;;;19.30;93.60;;;;;;5483024;26;20252;-75
2024/04/15 06:00:36;;;;;;;0.40;0.30;;;19.40;93.00;;;;;;5481300;26;20442;-74
2024/04/15 06:03:02;;;;;;;13.20;8.73;;;19.50;92.90;;;;;;5480152;26;20235;-75
2024/04/15 06:05:27;;;;;;;1.10;0.97;;;19.50;92.80;;;;;;5487856;26;20253;-76
2024/04/15 06:07:53;;;;;;;0.30;0.20;;;19.70;92.90;;;;;;5485816;26;20466;-76
2024/04/15 06:10:19;;;;;;;0.30;0.20;;;19.80;92.50;;;;;;5490685;26;20340;-76
2024/04/15 06:12:44;;;;;;;0.40;0.40;;;20.00;92.10;;;;;;5478120;26;20236;-75
2024/04/15 06:15:10;;;;;;;0.30;0.20;;;20.10;92.10;;;;;;5490001;25;20896;-75
2024/04/15 06:17:36;;;;;;;4.43;0.80;;;20.30;91.60;;;;;;5495715;25;20231;-75
2024/04/15 06:20:01;;;;;;;0.30;0.20;;;20.40;91.50;;;;;;5506797;26;20231;-75
2024/04/15 06:22:27;;;;;;;0.30;0.30;;;20.50;91.20;;;;;;5482024;25;20345;-75
2024/04/15 06:24:53;;;;;;;1.17;0.97;;;20.60;91.10;;;;;;5473729;26;20438;-75
2024/04/15 06:27:18;;;;;;;0.30;0.20;;;20.70;90.90;;;;;;5495168;26;20283;-75
2024/04/15 06:29:44;;;;;;;0.60;0.57;;;20.80;90.90;;;;;;5479818;26;20286;-75
2024/04/15 06:32:09;;;;;;;0.30;0.20;;;21.00;90.70;;;;;;5480331;26;20220;-75
2024/04/15 06:34:35;;;;;;;0.30;0.20;;;21.10;90.70;;;;;;5508080;25;20328;-75
2024/04/15 06:37:01;;;;;;;0.30;0.30;;;21.30;90.60;;;;;;5470758;26;20232;-75
2024/04/15 06:39:27;;;;;;;0.30;0.20;;;21.40;89.90;;;;;;5502860;26;20235;-75
2024/04/15 06:41:53;;;;;;;0.30;0.30;;;21.60;90.10;;;;;;5477943;25;20243;-75
2024/04/15 06:44:19;;;;;;;3.00;0.83;;;21.70;89.60;;;;;;5481641;25;20766;-75
2024/04/15 06:46:44;;;;;;;1.00;0.93;;;21.80;89.50;;;;;;5495956;25;20841;-75
2024/04/15 06:49:10;;;;;;;0.30;0.27;;;22.00;89.00;;;;;;5509254;25;20259;-75
2024/04/15 06:51:37;;;;;;;0.30;0.30;;;22.10;88.50;;;;;;5494505;25;20241;-75
2024/04/15 06:54:04;;;;;;;0.30;0.30;;;22.30;88.40;;;;;;5483154;25;20296;-75
2024/04/15 06:56:30;;;;;;;0.30;0.20;;;22.40;87.90;;;;;;5460577;26;20463;-75
2024/04/15 06:58:57;;;;;;;1.03;1.03;;;22.60;87.60;;;;;;5471556;26;20777;-77
2024/04/15 07:01:22;;;;;;;6.10;3.00;;;22.70;86.90;;;;;;5470614;26;20550;-76
2024/04/15 07:03:48;;;;;;;0.30;0.20;;;22.90;86.10;;;;;;5486550;26;20476;-78
2024/04/15 07:06:14;;;;;;;0.30;0.30;;;23.00;84.50;;;;;;5468623;26;20280;-77
2024/04/15 07:08:39;;;;;;;0.30;0.30;;;23.20;84.60;;;;;;5485571;26;20550;-78
2024/04/15 07:11:05;;;;;;;1.03;0.90;;;23.30;84.00;;;;;;5483726;26;20853;-76
2024/04/15 07:13:31;;;;;;;0.50;0.50;;;23.50;83.40;;;;;;5489412;26;20326;-78
2024/04/15 07:15:57;;;;;;;0.50;0.50;;;23.60;82.50;;;;;;5495494;26;21160;-77
2024/04/15 07:18:24;;;;;;;0.40;0.37;;;23.70;82.30;;;;;;5490488;26;20459;-77
2024/04/15 07:20:49;;;;;;;0.30;0.20;;;23.90;81.70;;;;;;5490080;25;20231;-78
2024/04/15 07:23:15;;;;;;;0.50;0.50;;;24.00;81.20;;;;;;5489797;25;20453;-78
2024/04/15 07:25:41;;;;;;;0.47;0.47;;;24.10;80.70;;;;;;5476280;26;20336;-79
2024/04/15 07:28:06;;;;;;;0.30;0.20;;;24.20;79.70;;;;;;5501266;25;20383;-77
2024/04/15 07:30:32;;;;;;;0.40;0.30;;;24.30;79.80;;;;;;5485734;25;20225;-77
2024/04/15 07:33:01;;;;;;;0.30;0.20;;;24.40;80.20;;;;;;5495742;26;21093;-77
2024/04/15 07:35:26;;;;;;;0.30;0.20;;;24.60;80.10;;;;;;5472428;26;20267;-78
2024/04/15 07:37:52;;;;;;;0.30;0.20;;;24.70;79.20;;;;;;5478618;26;20531;-77
2024/04/15 07:40:18;;;;;;;0.30;0.20;;;24.80;78.00;;;;;;5479995;26;20229;-75
2024/04/15 07:42:43;;;;;;;0.50;0.30;;;24.90;77.90;;;;;;5502768;25;20961;-77
2024/04/15 07:45:09;;;;;;;0.70;0.60;;;24.90;77.70;;;;;;5496483;26;20231;-77
2024/04/15 07:47:35;;;;;;;1.07;0.93;;;25.00;78.00;;;;;;5498349;26;20331;-75
2024/04/15 07:50:00;;;;;;;0.60;0.60;;;25.20;77.60;;;;;;5491688;25;20244;-74
2024/04/15 07:52:27;;;;;;;0.70;0.70;;;25.30;76.80;;;;;;5473089;26;20244;-78
2024/04/15 07:54:54;;;;;;;0.67;0.40;;;25.40;76.70;;;;;;5475128;26;20266;-77
2024/04/15 07:57:20;;;;;;;0.30;0.20;;;25.50;76.20;;;;;;5495958;26;20480;-74
2024/04/15 07:59:46;;;;;;;1.27;1.17;;;25.50;76.00;;;;;;5474662;26;21016;-77
2024/04/15 08:02:12;;;;;;;0.63;0.63;;;25.60;76.00;;;;;;5497896;26;20580;-75
2024/04/15 08:04:37;;;;;;;1.27;0.63;;;25.70;75.90;;;;;;5478316;26;20532;-75
2024/04/15 08:07:04;;;;;;;0.30;0.20;;;25.90;75.50;;;;;;5488714;26;20303;-75
2024/04/15 08:09:30;;;;;;;0.33;0.33;;;25.90;74.90;;;;;;5467792;26;20232;-76
2024/04/15 08:11:56;;;;;;;0.33;0.30;;;26.00;74.50;;;;;;5483161;26;20504;-75
2024/04/15 08:14:22;;;;;;;1.00;0.47;;;26.10;74.10;;;;;;5482661;26;20549;-77
2024/04/15 08:16:48;;;;;;;0.50;0.50;;;26.10;73.00;;;;;;5473431;26;20219;-73
2024/04/15 08:19:14;;;;;;;0.40;0.30;;;26.10;73.40;;;;;;5476808;25;21397;-74
2024/04/15 08:21:39;;;;;;;0.30;0.30;;;26.30;74.50;;;;;;5468463;26;20494;-74
2024/04/15 08:24:06;;;;;;;0.30;0.30;;;26.40;73.30;;;;;;5504759;25;20232;-74
2024/04/15 08:26:31;;;;;;;1.67;1.57;;;26.50;73.50;;;;;;5502555;26;20275;-74
2024/04/15 08:28:58;;;;;;;0.50;0.47;;;26.50;73.20;;;;;;5490320;26;20843;-73
2024/04/15 08:31:23;;;;;;;0.40;0.40;;;26.60;73.70;;;;;;5492257;26;20236;-74
2024/04/15 08:33:49;;;;;;;1.43;0.50;;;26.70;73.50;;;;;;5483567;26;21236;-77
2024/04/15 08:36:15;;;;;;;0.30;0.30;;;26.80;72.90;;;;;;5491446;26;20221;-75
2024/04/15 08:38:44;;;;;;;0.93;0.87;;;26.90;73.60;;;;;;5479585;26;20282;-75
2024/04/15 08:41:20;;;;;;;0.50;0.40;;;27.00;72.50;;;;;;5470639;26;20452;-75
2024/04/15 08:43:47;;;;;;;0.30;0.20;;;27.00;73.40;;;;;;5476076;26;20979;-76
2024/04/15 08:46:24;;;;;;;0.30;0.23;;;27.30;73.40;;;;;;5474766;26;20470;-75
2024/04/15 08:48:52;;;;;;;0.30;0.23;;;27.50;72.90;;;;;;5482892;26;20511;-76
2024/04/15 08:51:19;;;;;;;0.40;0.30;;;27.80;72.70;;;;;;5487925;26;20541;-76
2024/04/15 08:53:46;;;;;;;0.40;0.40;;;28.30;70.60;;;;;;5486257;26;20514;-76
2024/04/15 08:56:13;;;;;;;0.30;0.20;;;28.60;70.40;;;;;;5478980;26;20543;-76
2024/04/15 08:58:40;;;;;;;0.43;0.43;;;28.70;69.60;;;;;;5482541;25;20462;-76
2024/04/15 09:01:09;;;;;;;0.40;0.40;;;28.50;69.40;;;;;;5487916;26;21273;-77
2024/04/15 09:03:35;;;;;;;0.30;0.20;;;28.40;69.40;;;;;;5481612;26;20462;-73
2024/04/15 09:06:00;;;;;;;1.03;1.03;;;28.20;69.80;;;;;;5480144;26;20530;-76
2024/04/15 09:08:26;;;;;;;0.40;0.40;;;28.10;70.20;;;;;;5495039;26;20542;-76
2024/04/15 09:10:53;;;;;;;1.37;1.30;;;28.00;69.80;;;;;;5502951;26;20229;-75
2024/04/15 09:13:18;;;;;;;1.03;0.40;;;28.00;70.20;;;;;;5495606;26;20341;-76
2024/04/15 09:15:47;;;;;;;1.57;1.57;;;28.10;70.00;;;;;;5489796;25;21095;-75
2024/04/15 09:18:13;;;;;;;0.30;0.20;;;28.10;69.90;;;;;;5498446;26;20578;-75
2024/04/15 09:20:39;;;;;;;0.30;0.20;;;28.10;69.70;;;;;;5508844;26;20450;-75
2024/04/15 09:23:09;;;;;;;1.53;1.43;;;28.10;69.80;;;;;;5493298;26;20589;-75
2024/04/15 09:25:35;;;;;;;0.30;0.20;;;28.10;70.00;;;;;;5498057;26;20324;-77
2024/04/15 09:28:04;;;;;;;0.30;0.20;;;28.10;70.40;;;;;;5490869;26;21040;-76
2024/04/15 09:30:30;;;;;;;0.37;0.33;;;28.20;70.90;;;;;;5486399;26;20275;-76
2024/04/15 09:32:57;;;;;;;0.30;0.30;;;28.30;70.30;;;;;;5498501;26;20462;-77
2024/04/15 09:35:23;;;;;;;1.07;1.07;;;28.40;70.80;;;;;;5490480;26;20518;-77
2024/04/15 09:37:49;;;;;;;0.97;0.97;;;28.50;70.60;;;;;;5502546;26;20465;-74
2024/04/15 09:40:20;;;;;;;2.03;0.60;;;28.50;70.40;;;;;;5487030;26;20261;-74
2024/04/15 09:42:46;;;;;;;0.57;0.43;;;28.40;71.00;;;;;;5492999;26;20491;-75
2024/04/15 09:45:14;;;;;;;0.30;0.20;;;28.40;70.20;;;;;;5479021;26;20454;-76
2024/04/15 09:47:41;;;;;;;0.30;0.20;;;28.40;70.30;;;;;;5483665;25;20468;-76
2024/04/15 09:50:07;;;;;;;0.93;0.60;;;28.50;71.00;;;;;;5511327;25;20523;-76
2024/04/15 09:52:39;;;;;;;1.47;0.93;;;28.50;71.00;;;;;;5476623;26;20471;-76
2024/04/15 09:55:09;;;;;;;0.50;0.50;;;28.60;70.60;;;;;;5488105;26;20554;-76
2024/04/15 09:57:41;;;;;;;0.30;0.30;;;28.70;70.20;;;;;;5498288;26;20470;-76
2024/04/15 10:00:13;;;;;;;0.30;0.20;;;28.60;70.70;;;;;;5462791;26;21308;-75
2024/04/15 10:02:53;;;;;;;0.40;0.30;;;28.70;71.00;;;;;;5479699;26;21141;-76
2024/04/15 10:05:23;;;;;;;1.37;0.80;;;28.70;71.20;;;;;;5470013;25;20537;-75
2024/04/15 10:07:54;;;;;;;3.53;1.27;;;28.80;71.10;;;;;;5497999;26;21079;-76
2024/04/15 10:10:22;;;;;;;0.40;0.30;;;28.80;71.20;;;;;;5479423;26;20495;-75
2024/04/15 10:12:50;;;;;;;2.70;1.70;;;28.80;71.10;;;;;;5492210;26;20979;-75
2024/04/15 10:15:17;;;;;;;4.53;1.57;;;28.70;70.30;;;;;;5503024;25;21286;-77
2024/04/15 10:17:57;;;;;;;0.30;0.30;;;28.70;70.80;;;;;;5478099;26;20589;-76
2024/04/15 10:20:30;;;;;;;0.57;0.43;;;28.70;71.30;;;;;;5482503;25;20449;-74
2024/04/15 10:22:57;;;;;;;0.30;0.20;;;28.70;70.80;;;;;;5479151;26;20512;-75
2024/04/15 10:25:24;;;;;;;0.60;0.60;;;28.70;71.10;;;;;;5490680;26;20495;-75
2024/04/15 10:27:51;;;;;;;0.30;0.30;;;28.80;71.30;;;;;;5478605;26;20578;-76
2024/04/15 10:30:20;;;;;;;2.60;1.30;;;28.90;72.10;;;;;;5478878;26;20513;-76
2024/04/15 10:32:45;;;;;;;0.97;0.40;;;28.90;71.40;;;;;;5478902;26;20491;-75
2024/04/15 10:35:24;;;;;;;0.93;0.77;;;29.00;70.90;;;;;;5480474;26;20567;-76
2024/04/15 10:37:51;;;;;;;0.60;0.57;;;29.10;71.10;;;;;;5469617;26;20332;-76
2024/04/15 10:40:20;;;;;;;2.30;0.93;;;29.20;71.00;;;;;;5469162;26;21286;-76
2024/04/15 10:42:45;;;;;;;0.30;0.20;;;29.30;71.20;;;;;;5508545;25;21036;-76
2024/04/15 10:45:17;;;;;;;0.87;0.87;;;29.40;70.40;;;;;;5501842;26;20562;-76
2024/04/15 10:47:48;;;;;;;0.30;0.30;;;29.50;70.80;;;;;;5479224;25;20483;-75
2024/04/15 10:50:13;;;;;;;0.30;0.30;;;29.40;69.70;;;;;;5490458;26;20579;-75
2024/04/15 10:52:39;;;;;;;1.07;0.57;;;29.40;70.20;;;;;;5483548;26;20463;-75
2024/04/15 10:55:05;;;;;;;0.80;0.63;;;29.40;69.60;;;;;;5510657;25;20302;-76
2024/04/15 10:57:31;;;;;;;0.43;0.43;;;29.40;70.00;;;;;;5481264;26;20252;-76
2024/04/15 10:59:57;;;;;;;0.43;0.43;;;29.40;70.00;;;;;;5478102;26;20496;-76
2024/04/15 11:02:22;;;;;;;0.60;0.60;;;29.40;70.00;;;;;;5493015;26;20477;-75
2024/04/15 11:04:48;;;;;;;0.90;0.90;;;29.40;69.90;;;;;;5506396;26;20277;-76
2024/04/15 11:07:17;;;;;;;0.50;0.50;;;29.30;70.20;;;;;;5495195;26;20234;-75
2024/04/15 11:09:43;;;;;;;1.57;1.43;;;29.40;70.20;;;;;;5490792;26;20473;-76
2024/04/15 11:12:09;;;;;;;0.37;0.37;;;29.40;70.30;;;;;;5480300;26;20574;-75
2024/04/15 11:14:36;;;;;;;0.50;0.50;;;29.50;70.50;;;;;;5499698;26;20259;-75
2024/04/15 11:17:04;;;;;;;0.30;0.30;;;29.60;70.20;;;;;;5484939;26;20478;-75
2024/04/15 11:19:31;;;;;;;1.17;1.07;;;29.60;70.30;;;;;;5471592;26;20512;-75
2024/04/15 11:22:05;;;;;;;1.23;1.13;;;29.60;70.20;;;;;;5491459;25;20863;-76
2024/04/15 11:24:33;;;;;;;1.17;1.03;;;29.60;70.80;;;;;;5478152;26;20803;-76
2024/04/15 11:27:00;;;;;;;0.50;0.50;;;29.60;70.60;;;;;;5476368;26;20571;-76
2024/04/15 11:29:26;;;;;;;0.97;0.60;;;29.50;70.80;;;;;;5495416;26;20988;-77
2024/04/15 11:31:52;;;;;;;0.70;0.60;;;29.60;70.80;;;;;;5498996;26;20508;-77
2024/04/15 11:34:17;;;;;;;1.23;1.13;;;29.60;71.00;;;;;;5478398;25;20280;-76
2024/04/15 11:36:44;;;;;;;0.30;0.20;;;29.60;70.80;;;;;;5481407;26;20236;-77
2024/04/15 11:39:10;;;;;;;0.30;0.20;;;29.60;71.00;;;;;;5470990;25;20468;-77
2024/04/15 11:41:36;;;;;;;0.50;0.30;;;29.70;71.60;;;;;;5464244;26;20735;-76
2024/04/15 11:44:02;;;;;;;3.40;0.67;;;29.70;71.10;;;;;;5479399;26;20232;-77
2024/04/15 11:46:27;;;;;;;2.20;1.00;;;29.70;71.30;;;;;;5480977;26;20561;-76
2024/04/15 11:48:53;;;;;;;0.50;0.50;;;29.70;71.30;;;;;;5505613;26;20239;-77
2024/04/15 11:51:19;;;;;;;0.97;0.97;;;29.60;71.30;;;;;;5499114;25;21126;-77
2024/04/15 11:53:46;;;;;;;2.97;2.87;;;29.70;71.80;;;;;;5487336;26;20507;-79
2024/04/15 11:56:13;;;;;;;2.87;0.57;;;29.80;71.50;;;;;;5486000;26;20264;-77
2024/04/15 11:58:40;;;;;;;0.30;0.30;;;29.80;71.60;;;;;;5481518;25;20541;-76
2024/04/15 12:01:06;;;;;;;7.17;1.00;;;29.80;71.50;;;;;;5476299;25;20522;-77
2024/04/15 12:03:32;;;;;;;0.30;0.20;;;29.80;71.20;;;;;;5467095;26;21372;-74
2024/04/15 12:05:57;;;;;;;0.30;0.30;;;29.80;71.50;;;;;;5456303;26;21340;-79
2024/04/15 12:08:23;;;;;;;3.23;3.03;;;29.80;71.60;;;;;;5455124;26;20302;-79
2024/04/15 12:10:50;;;;;;;0.30;0.30;;;29.90;71.60;;;;;;5484973;26;20231;-77
2024/04/15 12:13:15;;;;;;;0.30;0.20;;;29.90;71.60;;;;;;5474587;26;20600;-78
2024/04/15 12:15:41;;;;;;;0.60;0.50;;;29.90;71.20;;;;;;5470984;26;20474;-75
2024/04/15 12:18:07;;;;;;;0.30;0.20;;;29.90;71.80;;;;;;5481808;25;20297;-80
2024/04/15 12:20:33;;;;;;;0.30;0.20;;;30.00;71.20;;;;;;5484267;26;20956;-81
2024/04/15 12:23:01;;;;;;;0.40;0.40;;;30.10;71.30;;;;;;5477190;25;20457;-78
2024/04/15 12:25:27;;;;;;;0.40;0.40;;;30.10;71.50;;;;;;5486161;26;20500;-80
2024/04/15 12:27:52;;;;;;;0.30;0.20;;;30.20;71.60;;;;;;5490486;26;20461;-80
2024/04/15 12:30:18;;;;;;;0.90;0.90;;;30.20;71.70;;;;;;5489768;26;20499;-78
2024/04/15 12:32:44;;;;;;;0.77;0.73;;;30.20;72.20;;;;;;5478988;26;20241;-81
2024/04/15 12:35:10;;;;;;;0.80;0.70;;;30.30;72.80;;;;;;5484250;25;20227;-75
2024/04/15 12:37:36;;;;;;;2.60;1.70;;;30.40;72.10;;;;;;5487524;25;22000;-76
2024/04/15 12:40:07;;;;;;;1.00;0.93;;;30.50;71.70;;;;;;5479080;26;20502;-80
2024/04/15 12:42:33;;;;;;;0.97;0.93;;;30.50;71.10;;;;;;5488849;26;20233;-78